KBBD/BBD METAR and TAF weather

Enter ICAO airport designator
Station Type Date Time Source
KBBD METAR 2021/01/22 07:15 UTC NOAA

KBBD 220715Z AUTO 20007KT 8SM FEW002 SCT045 BKN095 12/12 A2992 RMK AO2


Station Type Date Time Source
KBBD Decoded METAR 2021/01/22 07:15 UTC NOAA

Brady, Curtis Field Airport, TX, United States (KBBD) 31-10-45N 099-19-26W
Jan 22, 2021 - 02:15 AM EST / 2021.01.22 0715 UTC
Wind: from the SSW (200 degrees) at 8 MPH (7 KT):0
Visibility: 8 mile(s):0
Sky conditions: mostly cloudy
Temperature: 53 F (12 C)
Dew Point: 53 F (12 C)
Relative Humidity: 100%
Pressure (altimeter): 29.92 in. Hg (1013 hPa)
ob: KBBD 220715Z AUTO 20007KT 8SM FEW002 SCT045 BKN095 12/12 A2992 RMK AO2
cycle: 7

Station Type Date Time Source
KBBD TAF 2021/01/22 06:22 UTC NOAA

TAF KBBD 220520Z 2206/2306 23004KT 4SM BR VCSH BKN050
TEMPO 2206/2207 5SM -SHRA BR BKN050
FM220900 23005KT 4SM BR BKN015
FM221500 30008KT P6SM SCT100
FM222300 36006KT P6SM BKN015

Example: see airport list